createdAt,value
2022-08-17T00:00:34.197Z,7.45
2022-08-17T00:03:03.226Z,7.95
2022-08-17T00:05:33.414Z,7.68
2022-08-17T00:08:01.196Z,8.13
2022-08-17T00:10:31.147Z,8.07
2022-08-17T00:13:00.677Z,8.20
2022-08-17T00:15:29.559Z,7.50
2022-08-17T00:17:57.190Z,7.95
2022-08-17T00:20:32.068Z,7.55
2022-08-17T00:23:11.819Z,7.88
2022-08-17T00:25:41.222Z,7.15
2022-08-17T00:28:09.131Z,7.82
2022-08-17T00:30:51.295Z,7.70
2022-08-17T00:33:25.988Z,7.38
2022-08-17T00:35:55.015Z,7.55
2022-08-17T00:38:23.685Z,7.85
2022-08-17T00:40:55.887Z,7.38
2022-08-17T00:43:31.071Z,7.78
2022-08-17T00:48:30.789Z,8.82
2022-08-17T00:51:08.090Z,8.40
2022-08-17T00:53:39.161Z,8.27
2022-08-17T00:56:11.708Z,8.33
2022-08-17T00:58:39.801Z,8.68
2022-08-17T01:01:11.081Z,8.05
2022-08-17T01:03:39.987Z,8.38
2022-08-17T01:06:09.941Z,8.80
2022-08-17T01:08:39.883Z,7.85
2022-08-17T01:11:09.191Z,8.55
2022-08-17T01:13:41.609Z,8.50
2022-08-17T01:16:17.042Z,8.30
2022-08-17T01:18:46.468Z,7.88
2022-08-17T01:21:21.319Z,7.47
2022-08-17T01:23:50.605Z,7.55
2022-08-17T01:26:19.033Z,7.78
2022-08-17T01:28:54.180Z,7.93
2022-08-17T01:31:25.684Z,8.10
2022-08-17T01:33:53.845Z,7.60
2022-08-17T01:36:21.902Z,7.80
2022-08-17T01:38:51.557Z,8.40
2022-08-17T01:41:22.870Z,8.10
2022-08-17T01:43:54.786Z,8.50
2022-08-17T01:48:51.673Z,8.18
2022-08-17T01:51:20.431Z,8.90
2022-08-17T01:53:52.890Z,7.97
2022-08-17T01:56:24.200Z,8.52
2022-08-17T01:58:53.073Z,8.60
2022-08-17T02:01:24.579Z,7.72
2022-08-17T02:03:53.187Z,9.00
2022-08-17T02:06:28.441Z,8.02
2022-08-17T02:09:02.581Z,8.50
2022-08-17T02:11:33.135Z,9.23
2022-08-17T02:14:03.002Z,9.05
2022-08-17T02:16:37.313Z,8.30
2022-08-17T02:19:08.133Z,9.38
2022-08-17T02:21:36.229Z,8.68
2022-08-17T02:24:06.385Z,9.18
2022-08-17T02:26:36.330Z,9.10
2022-08-17T02:29:04.957Z,9.43
2022-08-17T02:31:32.675Z,9.38
2022-08-17T02:34:04.784Z,9.57
2022-08-17T02:36:35.134Z,9.30
2022-08-17T02:39:05.907Z,9.45
2022-08-17T02:41:33.713Z,9.63
2022-08-17T02:44:01.681Z,9.27
2022-08-17T02:46:30.398Z,9.57
2022-08-17T02:48:58.213Z,10.60
2022-08-17T02:51:26.008Z,8.80
2022-08-17T02:54:35.641Z,9.15
2022-08-17T02:56:42.774Z,10.05
2022-08-17T02:59:10.452Z,9.73
2022-08-17T03:01:38.107Z,9.88
2022-08-17T03:04:06.270Z,9.60
2022-08-17T03:06:33.959Z,9.32
2022-08-17T03:09:01.618Z,9.27
2022-08-17T03:11:29.208Z,9.73
2022-08-17T03:13:59.063Z,9.80
2022-08-17T03:16:26.766Z,10.88
2022-08-17T03:18:55.076Z,10.45
2022-08-17T03:21:22.684Z,10.40
2022-08-17T03:23:54.463Z,10.95
2022-08-17T03:26:22.456Z,10.63
2022-08-17T03:28:50.104Z,10.40
2022-08-17T03:31:20.603Z,10.27
2022-08-17T03:33:48.530Z,10.18
2022-08-17T03:36:16.255Z,10.32
2022-08-17T03:38:44.086Z,10.05
2022-08-17T03:41:13.866Z,10.93
2022-08-17T03:43:41.489Z,11.30
2022-08-17T03:46:34.372Z,11.60
2022-08-17T03:49:23.883Z,11.57
2022-08-17T03:52:09.512Z,11.93
2022-08-17T03:54:54.941Z,11.63
2022-08-17T03:57:22.666Z,12.15
2022-08-17T03:59:50.642Z,11.73
2022-08-17T04:02:20.671Z,11.95
2022-08-17T04:04:51.286Z,12.45
2022-08-17T04:07:19.439Z,13.00
2022-08-17T04:09:48.857Z,12.70
2022-08-17T04:12:17.775Z,12.93
2022-08-17T04:14:52.243Z,12.52
2022-08-17T04:17:24.187Z,11.93
2022-08-17T04:19:54.724Z,12.05
2022-08-17T04:22:32.479Z,13.18
2022-08-17T04:25:08.234Z,13.00
2022-08-17T04:27:36.418Z,13.02
2022-08-17T04:30:06.829Z,13.52
2022-08-17T04:33:03.523Z,14.02
2022-08-17T04:35:25.639Z,12.05
2022-08-17T04:37:53.653Z,11.90
2022-08-17T04:40:40.133Z,12.23
2022-08-17T04:43:10.532Z,11.27
2022-08-17T04:45:40.262Z,12.30
2022-08-17T04:48:22.667Z,12.30
2022-08-17T04:50:56.934Z,12.48
2022-08-17T04:53:24.604Z,12.05
2022-08-17T04:55:53.369Z,12.45
2022-08-17T04:58:21.583Z,12.43
2022-08-17T05:00:49.208Z,11.85
2022-08-17T05:03:16.857Z,12.35
2022-08-17T05:05:49.286Z,11.55
2022-08-17T05:08:20.300Z,11.18
2022-08-17T05:10:48.738Z,10.85
2022-08-17T05:13:19.362Z,11.80
2022-08-17T05:15:48.787Z,10.88
2022-08-17T05:18:17.539Z,10.82
2022-08-17T05:20:46.698Z,10.80
2022-08-17T05:23:16.354Z,11.10
2022-08-17T05:25:48.908Z,10.60
2022-08-17T05:28:23.457Z,11.63
2022-08-17T05:30:55.829Z,11.73
2022-08-17T05:33:26.291Z,11.90
2022-08-17T05:35:55.790Z,11.25
2022-08-17T05:38:25.642Z,11.98
2022-08-17T05:40:55.121Z,11.55
2022-08-17T05:43:24.658Z,12.10
2022-08-17T05:46:03.777Z,12.15
2022-08-17T05:48:40.086Z,12.18
2022-08-17T05:51:32.334Z,12.13
2022-08-17T05:54:12.134Z,11.68
2022-08-17T05:57:00.826Z,12.20
2022-08-17T05:59:38.413Z,12.00
2022-08-17T06:02:14.246Z,12.05
2022-08-17T06:04:56.764Z,12.02
2022-08-17T06:07:30.279Z,11.75
2022-08-17T06:10:05.081Z,11.73
2022-08-17T06:12:44.467Z,11.55
2022-08-17T06:15:26.059Z,12.07
2022-08-17T06:17:58.186Z,11.35
2022-08-17T06:20:28.587Z,11.35
2022-08-17T06:23:06.259Z,11.40
2022-08-17T06:25:38.999Z,10.35
2022-08-17T06:28:14.353Z,10.98
2022-08-17T06:30:59.131Z,10.80
2022-08-17T06:33:34.291Z,10.52
2022-08-17T06:36:09.404Z,10.52
2022-08-17T06:38:49.847Z,9.90
2022-08-17T06:41:26.705Z,9.43
2022-08-17T06:44:09.903Z,9.43
2022-08-17T06:46:39.388Z,10.30
2022-08-17T06:49:16.909Z,9.05
2022-08-17T06:51:50.524Z,9.10
2022-08-17T06:54:27.326Z,9.73
2022-08-17T06:56:59.869Z,8.70
2022-08-17T06:59:56.439Z,8.77
2022-08-17T07:02:52.831Z,8.32
2022-08-17T07:05:24.893Z,8.63
2022-08-17T07:08:03.440Z,6.93
2022-08-17T07:10:37.625Z,7.70
2022-08-17T07:13:21.363Z,8.02
2022-08-17T07:15:56.906Z,7.32
2022-08-17T07:18:27.302Z,7.95
2022-08-17T07:21:03.587Z,7.43
2022-08-17T07:23:41.803Z,7.00
2022-08-17T07:26:10.487Z,6.88
2022-08-17T07:28:41.030Z,7.03
2022-08-17T07:31:13.233Z,6.10
2022-08-17T07:33:40.980Z,5.60
2022-08-17T07:36:29.814Z,6.13
2022-08-17T07:38:58.710Z,6.00
2022-08-17T07:41:27.761Z,5.30
2022-08-17T07:44:16.735Z,5.22
2022-08-17T07:47:12.240Z,5.25
2022-08-17T07:49:41.581Z,5.25
2022-08-17T07:52:24.162Z,5.65
2022-08-17T07:55:00.610Z,5.73
2022-08-17T07:57:33.851Z,5.93
2022-08-17T08:00:19.638Z,5.90
2022-08-17T08:03:16.509Z,6.10
2022-08-17T08:05:57.340Z,5.80
2022-08-17T08:08:31.889Z,6.18
2022-08-17T08:11:03.460Z,5.97
2022-08-17T08:13:32.445Z,5.70
2022-08-17T08:16:20.603Z,5.47
2022-08-17T08:18:54.292Z,5.28
2022-08-17T08:21:36.854Z,5.50
2022-08-17T08:24:23.749Z,5.32
2022-08-17T08:27:00.451Z,5.38
2022-08-17T08:29:37.864Z,5.50
2022-08-17T08:32:18.215Z,5.80
2022-08-17T08:35:02.818Z,4.70
2022-08-17T08:37:43.077Z,5.53
2022-08-17T08:40:22.845Z,5.50
2022-08-17T08:42:59.978Z,5.30
2022-08-17T08:45:38.152Z,5.20
2022-08-17T08:48:22.949Z,5.35
2022-08-17T08:51:17.641Z,4.90
2022-08-17T08:53:54.741Z,5.00
2022-08-17T08:56:28.785Z,4.88
2022-08-17T08:59:03.230Z,4.53
2022-08-17T09:01:38.049Z,4.53
2022-08-17T09:04:40.696Z,5.03
2022-08-17T09:07:30.750Z,5.43
2022-08-17T09:10:07.252Z,4.45
2022-08-17T09:12:47.521Z,4.15
2022-08-17T09:15:19.817Z,4.07
2022-08-17T09:18:14.563Z,4.50
2022-08-17T09:20:50.062Z,4.78
2022-08-17T09:23:32.317Z,3.83
2022-08-17T09:28:36.297Z,4.70
2022-08-17T09:31:10.763Z,4.18
2022-08-17T09:33:43.470Z,4.43
2022-08-17T09:36:17.316Z,3.92
2022-08-17T09:38:56.516Z,4.10
2022-08-17T09:41:32.352Z,4.30
2022-08-17T09:44:10.741Z,3.90
2022-08-17T09:46:56.797Z,4.00
2022-08-17T09:49:31.379Z,4.25
2022-08-17T09:52:03.610Z,4.47
2022-08-17T09:54:40.142Z,4.22
2022-08-17T09:57:29.785Z,3.72
2022-08-17T10:00:18.666Z,3.97
2022-08-17T10:03:28.134Z,4.68
2022-08-17T10:06:06.622Z,4.45
2022-08-17T10:08:39.764Z,4.40
2022-08-17T10:11:22.378Z,4.25
2022-08-17T10:14:36.399Z,4.40
2022-08-17T10:17:04.911Z,4.68
2022-08-17T10:19:39.995Z,4.38
2022-08-17T10:22:41.268Z,4.15
2022-08-17T10:25:42.922Z,4.30
2022-08-17T10:28:28.890Z,5.25
2022-08-17T10:31:31.096Z,4.60
2022-08-17T10:33:59.130Z,4.90
2022-08-17T10:36:37.865Z,4.80
2022-08-17T10:39:19.748Z,4.55
2022-08-17T10:41:52.516Z,4.30
2022-08-17T10:44:37.031Z,4.30
2022-08-17T10:47:10.357Z,4.57
2022-08-17T10:49:39.379Z,4.88
2022-08-17T10:52:48.565Z,4.50
2022-08-17T10:55:20.255Z,4.93
2022-08-17T10:57:50.605Z,4.50
2022-08-17T11:01:00.272Z,4.60
2022-08-17T11:03:28.567Z,4.50
2022-08-17T11:06:05.217Z,4.75
2022-08-17T11:09:03.306Z,4.45
2022-08-17T11:11:53.022Z,5.10
2022-08-17T11:14:34.798Z,4.68
2022-08-17T11:17:16.289Z,4.43
2022-08-17T11:20:09.859Z,4.60
2022-08-17T11:23:07.543Z,4.70
2022-08-17T11:25:39.183Z,4.43
2022-08-17T11:30:44.647Z,4.20
2022-08-17T11:34:02.093Z,4.55
2022-08-17T11:36:47.655Z,4.80
2022-08-17T11:39:38.386Z,4.55
2022-08-17T11:42:19.875Z,4.15
2022-08-17T11:44:54.121Z,4.78
2022-08-17T11:48:09.073Z,4.35
2022-08-17T11:51:05.056Z,4.82
2022-08-17T11:54:31.072Z,5.43
2022-08-17T11:56:52.732Z,5.38
2022-08-17T12:00:00.788Z,5.50
2022-08-17T12:02:47.524Z,5.65
2022-08-17T12:05:33.047Z,5.40
2022-08-17T12:08:19.707Z,5.53
2022-08-17T12:11:03.151Z,5.43
2022-08-17T12:13:39.744Z,5.32
2022-08-17T12:16:10.255Z,5.40
2022-08-17T12:18:41.861Z,5.10
2022-08-17T12:23:56.859Z,5.32
2022-08-17T12:26:30.349Z,5.50
2022-08-17T12:29:01.883Z,5.47
2022-08-17T12:31:35.454Z,5.10
2022-08-17T12:34:04.134Z,5.15
2022-08-17T12:36:33.692Z,5.38
2022-08-17T12:39:13.089Z,5.63
2022-08-17T12:41:44.374Z,5.50
2022-08-17T12:44:15.627Z,5.40
2022-08-17T12:46:52.495Z,5.50
2022-08-17T12:49:24.109Z,5.60
2022-08-17T12:51:56.430Z,5.90
2022-08-17T12:54:31.310Z,6.53
2022-08-17T12:57:05.502Z,5.30
2022-08-17T12:59:33.641Z,5.05
2022-08-17T13:02:02.766Z,4.82
2022-08-17T13:04:32.266Z,4.53
2022-08-17T13:07:00.366Z,4.60
2022-08-17T13:09:35.819Z,4.50
2022-08-17T13:12:09.146Z,4.40
2022-08-17T13:14:36.871Z,4.05
2022-08-17T13:17:11.235Z,4.05
2022-08-17T13:19:49.091Z,3.78
2022-08-17T13:22:16.813Z,3.67
2022-08-17T13:24:54.222Z,3.85
2022-08-17T13:27:25.162Z,3.53
2022-08-17T13:29:56.300Z,3.80
2022-08-17T13:32:38.150Z,3.67
2022-08-17T13:35:39.336Z,3.40
2022-08-17T13:38:10.514Z,3.40
2022-08-17T13:40:42.692Z,3.60
2022-08-17T13:43:11.914Z,3.47
2022-08-17T13:45:53.236Z,3.90
2022-08-17T13:48:26.734Z,3.75
2022-08-17T13:51:25.870Z,3.20
2022-08-17T13:54:01.187Z,3.30
2022-08-17T13:56:38.184Z,3.80
2022-08-17T13:59:11.065Z,3.40
2022-08-17T14:01:41.855Z,3.50
2022-08-17T14:04:13.227Z,3.30
2022-08-17T14:06:53.828Z,3.30
2022-08-17T14:09:24.400Z,3.67
2022-08-17T14:11:53.959Z,4.28
2022-08-17T14:14:23.012Z,3.75
2022-08-17T14:16:50.883Z,4.18
2022-08-17T14:19:21.819Z,4.03
2022-08-17T14:21:50.152Z,4.68
2022-08-17T14:24:23.535Z,4.95
2022-08-17T14:26:52.854Z,4.57
2022-08-17T14:29:21.297Z,4.78
2022-08-17T14:31:54.291Z,5.88
2022-08-17T14:34:24.702Z,4.82
2022-08-17T14:36:53.177Z,5.63
2022-08-17T14:39:21.189Z,5.65
2022-08-17T14:41:49.013Z,5.10
2022-08-17T14:44:16.821Z,5.13
2022-08-17T14:46:45.769Z,4.90
2022-08-17T14:49:15.535Z,4.90
2022-08-17T14:51:44.802Z,4.65
2022-08-17T14:54:28.779Z,4.97
2022-08-17T14:57:22.531Z,4.70
2022-08-17T14:59:50.704Z,5.00
2022-08-17T15:02:29.443Z,4.43
2022-08-17T15:05:01.643Z,4.40
2022-08-17T15:07:31.423Z,5.30
2022-08-17T15:10:00.760Z,5.45
2022-08-17T15:12:33.354Z,6.70
2022-08-17T15:15:02.025Z,6.65
2022-08-17T15:17:44.485Z,6.53
2022-08-17T15:20:16.579Z,7.15
2022-08-17T15:22:49.370Z,8.20
2022-08-17T15:25:17.559Z,7.45
2022-08-17T15:27:45.361Z,7.72
2022-08-17T15:30:14.630Z,7.32
2022-08-17T15:32:50.734Z,7.18
2022-08-17T15:35:28.182Z,8.02
2022-08-17T15:38:06.244Z,7.47
2022-08-17T15:40:36.994Z,7.78
2022-08-17T15:43:10.315Z,7.50
2022-08-17T15:45:38.290Z,7.97
2022-08-17T15:48:06.835Z,9.40
2022-08-17T15:50:34.886Z,9.30
2022-08-17T15:53:04.711Z,10.32
2022-08-17T15:55:33.639Z,9.32
2022-08-17T15:58:01.767Z,9.57
2022-08-17T16:00:30.336Z,10.88
2022-08-17T16:03:29.440Z,10.07
2022-08-17T16:05:48.916Z,11.13
2022-08-17T16:08:21.149Z,12.77
2022-08-17T16:10:49.980Z,11.55
2022-08-17T16:13:18.719Z,11.55
2022-08-17T16:15:56.568Z,11.10
2022-08-17T16:18:27.299Z,10.55
2022-08-17T16:20:55.107Z,11.70
2022-08-17T16:23:24.760Z,10.38
2022-08-17T16:25:54.243Z,10.20
2022-08-17T16:28:23.604Z,10.57
2022-08-17T16:31:03.862Z,9.80
2022-08-17T16:33:31.466Z,10.45
2022-08-17T16:35:59.247Z,9.57
2022-08-17T16:38:28.326Z,9.85
2022-08-17T16:40:55.995Z,10.73
2022-08-17T16:43:23.638Z,10.98
2022-08-17T16:45:52.233Z,9.88
2022-08-17T16:48:20.035Z,9.75
2022-08-17T16:51:03.198Z,9.82
2022-08-17T16:53:33.343Z,9.23
2022-08-17T16:56:01.051Z,10.90
2022-08-17T16:58:29.017Z,10.40
2022-08-17T17:00:59.556Z,10.15
2022-08-17T17:03:31.818Z,11.50
2022-08-17T17:06:08.534Z,10.90
2022-08-17T17:08:44.802Z,9.90
2022-08-17T17:11:16.335Z,12.32
2022-08-17T17:13:50.639Z,12.82
2022-08-17T17:16:21.621Z,13.00
2022-08-17T17:19:04.491Z,11.60
2022-08-17T17:21:38.350Z,12.10
2022-08-17T17:24:15.046Z,11.40
2022-08-17T17:26:57.264Z,12.43
2022-08-17T17:29:48.186Z,12.43
2022-08-17T17:32:21.378Z,12.68
2022-08-17T17:34:52.318Z,12.73
2022-08-17T17:37:26.391Z,16.13
2022-08-17T17:39:59.876Z,12.95
2022-08-17T17:42:31.362Z,13.35
2022-08-17T17:45:08.601Z,13.13
2022-08-17T17:47:38.274Z,12.02
2022-08-17T17:50:07.979Z,12.32
2022-08-17T17:52:45.271Z,12.52
2022-08-17T17:55:26.245Z,13.48
2022-08-17T17:58:04.299Z,13.00
2022-08-17T18:00:38.179Z,12.80
2022-08-17T18:03:20.420Z,13.38
2022-08-17T18:06:25.749Z,13.85
2022-08-17T18:09:04.757Z,14.32
2022-08-17T18:11:51.746Z,13.38
2022-08-17T18:14:32.112Z,14.60
2022-08-17T18:17:02.217Z,14.65
2022-08-17T18:19:31.977Z,14.85
2022-08-17T18:22:06.937Z,14.63
2022-08-17T18:24:37.878Z,16.52
2022-08-17T18:27:21.562Z,16.63
2022-08-17T18:29:51.180Z,14.45
2022-08-17T18:32:25.498Z,14.32
2022-08-17T18:34:55.643Z,14.85
2022-08-17T18:37:42.567Z,14.63
2022-08-17T18:40:36.182Z,15.10
2022-08-17T18:43:23.772Z,15.07
2022-08-17T18:45:54.189Z,13.93
2022-08-17T18:48:28.966Z,14.35
2022-08-17T18:51:00.306Z,16.15
2022-08-17T18:53:38.125Z,14.13
2022-08-17T18:56:21.353Z,14.75
2022-08-17T18:59:03.225Z,14.30
2022-08-17T19:04:34.561Z,15.63
2022-08-17T19:07:09.243Z,15.73
2022-08-17T19:09:41.358Z,15.63
2022-08-17T19:12:27.571Z,14.75
2022-08-17T19:14:58.688Z,14.00
2022-08-17T19:17:35.259Z,14.93
2022-08-17T19:20:10.517Z,13.75
2022-08-17T19:22:50.656Z,13.27
2022-08-17T19:25:24.210Z,13.50
2022-08-17T19:27:59.926Z,12.80
2022-08-17T19:30:29.457Z,13.55
2022-08-17T19:32:58.384Z,12.75
2022-08-17T19:35:32.219Z,15.88
2022-08-17T19:38:13.336Z,14.13
2022-08-17T19:40:54.028Z,14.48
2022-08-17T19:43:30.118Z,13.93
2022-08-17T19:46:08.433Z,13.18
2022-08-17T19:48:47.084Z,13.75
2022-08-17T19:51:21.384Z,13.95
2022-08-17T19:54:05.341Z,14.65
2022-08-17T19:56:45.077Z,14.32
2022-08-17T19:59:21.244Z,14.27
2022-08-17T20:01:53.930Z,14.25
2022-08-17T20:04:35.392Z,14.57
2022-08-17T20:07:08.463Z,14.07
2022-08-17T20:09:39.511Z,15.18
2022-08-17T20:12:10.755Z,14.63
2022-08-17T20:14:53.944Z,15.30
2022-08-17T20:17:28.614Z,14.60
2022-08-17T20:20:03.071Z,14.80
2022-08-17T20:22:46.750Z,14.20
2022-08-17T20:25:30.566Z,15.00
2022-08-17T20:28:05.939Z,14.23
2022-08-17T20:30:38.349Z,15.27
2022-08-17T20:36:00.307Z,13.95
2022-08-17T20:38:43.307Z,14.40
2022-08-17T20:41:14.503Z,15.05
2022-08-17T20:44:05.022Z,15.52
2022-08-17T20:46:52.802Z,15.70
2022-08-17T20:49:27.672Z,17.40
2022-08-17T20:52:03.670Z,17.30
2022-08-17T20:54:48.197Z,17.35
2022-08-17T20:57:45.512Z,17.98
2022-08-17T21:00:34.488Z,17.00
2022-08-17T21:03:39.972Z,17.48
2022-08-17T21:06:23.112Z,18.67
2022-08-17T21:08:58.768Z,18.20
2022-08-17T21:12:02.384Z,19.00
2022-08-17T21:14:59.523Z,18.50
2022-08-17T21:17:39.940Z,19.00
2022-08-17T21:20:26.935Z,18.67
2022-08-17T21:23:24.181Z,18.73
2022-08-17T21:26:08.224Z,19.02
2022-08-17T21:29:01.305Z,21.30
2022-08-17T21:31:35.967Z,20.85
2022-08-17T21:34:32.817Z,20.20
2022-08-17T21:37:29.673Z,21.75
2022-08-17T21:40:01.175Z,21.67
2022-08-17T21:42:32.356Z,22.50
2022-08-17T21:45:11.556Z,22.50
2022-08-17T21:47:47.687Z,21.67
2022-08-17T21:50:21.422Z,20.88
2022-08-17T21:52:51.359Z,23.25
2022-08-17T21:55:28.091Z,22.33
2022-08-17T21:58:13.807Z,23.30
2022-08-17T22:00:44.194Z,22.13
2022-08-17T22:03:24.027Z,22.67
2022-08-17T22:05:51.761Z,23.33
2022-08-17T22:08:22.973Z,24.52
2022-08-17T22:11:01.991Z,23.77
2022-08-17T22:13:30.131Z,25.40
2022-08-17T22:16:15.462Z,24.38
2022-08-17T22:18:58.573Z,23.50
2022-08-17T22:21:26.655Z,23.77
2022-08-17T22:24:06.603Z,23.58
2022-08-17T22:27:02.765Z,23.92
2022-08-17T22:29:57.428Z,23.85
2022-08-17T22:32:34.475Z,23.38
2022-08-17T22:35:33.088Z,26.13
2022-08-17T22:38:26.091Z,27.30
2022-08-17T22:40:55.493Z,26.98
2022-08-17T22:43:28.955Z,25.77
2022-08-17T22:45:59.814Z,26.05
2022-08-17T22:48:31.149Z,25.65
2022-08-17T22:51:12.849Z,26.95
2022-08-17T22:54:04.477Z,24.10
2022-08-17T22:56:50.119Z,23.00
2022-08-17T22:59:38.339Z,23.42
2022-08-17T23:02:23.621Z,22.75
2022-08-17T23:04:54.099Z,24.13
2022-08-17T23:07:22.031Z,24.30
2022-08-17T23:09:49.813Z,23.38
2022-08-17T23:12:22.017Z,23.40
2022-08-17T23:14:58.338Z,22.85
2022-08-17T23:17:27.506Z,24.13
2022-08-17T23:19:56.958Z,25.80
2022-08-17T23:22:25.359Z,25.08
2022-08-17T23:24:53.065Z,24.83
2022-08-17T23:27:22.078Z,24.85
2022-08-17T23:29:51.373Z,24.38
2022-08-17T23:32:19.603Z,23.73
2022-08-17T23:34:50.775Z,24.15
2022-08-17T23:37:19.925Z,26.85
2022-08-17T23:39:47.624Z,27.25
2022-08-17T23:42:21.760Z,25.80
2022-08-17T23:44:51.057Z,25.40
2022-08-17T23:47:18.719Z,24.60
2022-08-17T23:49:46.340Z,24.38
2022-08-17T23:52:16.506Z,24.83
2022-08-17T23:54:46.491Z,25.35
2022-08-17T23:57:16.567Z,25.23
2022-08-17T23:59:44.972Z,28.00
